Terminal Aerodrome Forecast
Issued by NWS

Home | Current Version | Previous Version | Text Only | Print | Product List | Glossary On
Versions: 1 2 3 4 5 6 7 8 9 10 11 12 13 14 15 16 17 18 19 20 21 22 23 24 25
000
FTUS46 KSGX 211436 AAA
TAFSAN
TAF AMD
KSAN 211436Z 2115/2218 20006KT P6SM BKN015
     FM211700 20006KT P6SM SCT015
     FM212000 26008KT P6SM SKC
     FM220130 VRB04KT P6SM SKC
     FM220530 VRB04KT P6SM BKN010
     FM220900 VRB04KT 5SM BR OVC008
     FM221600 VRB04KT P6SM SCT010=

USA.gov is the U.S. government's official web portal to all federal, state and local government web resources and services.